Time;durP1;ratioP1;P1;durP2;ratioP2;P2;SDS_P1;SDS_P2;PMS_P1;PMS_P2;Temp;Humidity;BMP_temperature;BMP_pressure;BME280_temperature;BME280_humidity;BME280_pressure;Samples;Min_cycle;Max_cycle;Signal;HPM_P1;HPM_P2
2023/06/23 00:01:32;;;;;;;7.87;7.37;;;;;;;20.21;100.00;101544.97;4997173;28;20488;-42
2023/06/23 00:04:00;;;;;;;8.60;8.00;;;;;;;20.21;100.00;101553.09;4997444;28;20433;-41
2023/06/23 00:06:29;;;;;;;8.87;8.20;;;;;;;20.17;100.00;101543.81;4996900;28;20462;-42
2023/06/23 00:08:57;;;;;;;7.43;6.83;;;;;;;20.16;100.00;101563.81;4997778;28;20458;-43
2023/06/23 00:11:25;;;;;;;8.10;7.43;;;;;;;20.12;100.00;101553.72;4997329;28;20538;-43
2023/06/23 00:13:53;;;;;;;7.83;7.10;;;;;;;20.09;100.00;101562.31;4997182;28;20675;-41
2023/06/23 00:16:20;;;;;;;8.23;7.33;;;;;;;20.05;100.00;101561.13;4996871;28;20530;-41
2023/06/23 00:18:48;;;;;;;8.00;7.40;;;;;;;19.99;100.00;101567.50;4997663;28;20453;-42
2023/06/23 00:21:16;;;;;;;8.67;7.43;;;;;;;19.97;100.00;101564.22;4997921;28;20450;-42
2023/06/23 00:23:45;;;;;;;8.50;7.70;;;;;;;20.02;100.00;101575.16;4996822;28;20489;-44
2023/06/23 00:26:13;;;;;;;8.80;8.20;;;;;;;20.07;100.00;101578.78;4996032;28;20469;-43
2023/06/23 00:28:40;;;;;;;7.93;7.33;;;;;;;20.09;100.00;101584.81;4996308;28;20453;-44
2023/06/23 00:31:08;;;;;;;8.77;7.97;;;;;;;20.09;100.00;101589.41;4998458;28;20468;-42
2023/06/23 00:33:36;;;;;;;8.73;7.90;;;;;;;20.09;100.00;101595.63;4999949;28;20438;-43
2023/06/23 00:36:04;;;;;;;7.83;7.23;;;;;;;20.07;100.00;101600.44;4999444;28;20572;-46
2023/06/23 00:38:33;;;;;;;7.80;7.20;;;;;;;20.07;100.00;101602.34;4999179;28;20453;-47
2023/06/23 00:41:04;;;;;;;8.63;7.83;;;;;;;20.09;100.00;101592.09;4999856;28;20453;-43
2023/06/23 00:43:31;;;;;;;7.50;7.00;;;;;;;20.08;100.00;101612.94;4999403;28;20463;-46
2023/06/23 00:46:08;;;;;;;7.47;6.87;;;;;;;20.09;100.00;101601.06;4998929;28;20466;-48
2023/06/23 00:48:38;;;;;;;9.00;7.23;;;;;;;20.06;100.00;101609.66;4998915;28;20508;-45
2023/06/23 00:51:06;;;;;;;7.83;7.33;;;;;;;20.08;100.00;101615.63;4999573;28;20436;-46
2023/06/23 00:53:33;;;;;;;8.37;7.70;;;;;;;20.04;100.00;101619.06;4999664;28;20500;-43
2023/06/23 00:56:03;;;;;;;8.13;7.43;;;;;;;20.09;100.00;101613.75;4999900;28;20509;-45
2023/06/23 00:58:34;;;;;;;8.57;8.03;;;;;;;20.08;100.00;101621.06;5001027;28;20535;-43
2023/06/23 01:01:03;;;;;;;8.93;8.10;;;;;;;20.10;100.00;101615.41;5001216;28;20469;-46
2023/06/23 01:03:32;;;;;;;8.30;7.70;;;;;;;20.05;100.00;101626.13;5000818;28;20476;-43
2023/06/23 01:06:10;;;;;;;7.90;7.37;;;;;;;20.05;100.00;101618.00;4999806;28;20552;-42
2023/06/23 01:08:47;;;;;;;8.20;7.70;;;;;;;20.08;100.00;101623.75;5000455;28;20497;-43
2023/06/23 01:11:22;;;;;;;9.93;8.97;;;;;;;20.08;100.00;101631.06;5000615;28;20531;-49
2023/06/23 01:13:55;;;;;;;8.30;7.70;;;;;;;20.07;100.00;101618.59;5000825;28;20452;-43
2023/06/23 01:16:31;;;;;;;8.40;7.73;;;;;;;20.03;100.00;101606.59;4999435;28;20539;-43
2023/06/23 01:19:09;;;;;;;7.90;7.30;;;;;;;20.00;100.00;101615.19;5000885;28;20914;-47
2023/06/23 01:22:01;;;;;;;8.60;8.10;;;;;;;19.96;100.00;101611.28;5001008;28;20437;-45
2023/06/23 01:24:48;;;;;;;8.20;7.60;;;;;;;19.93;100.00;101601.78;5000661;28;20931;-42
2023/06/23 01:27:37;;;;;;;8.60;8.00;;;;;;;19.84;100.00;101601.31;5000731;28;20440;-47
2023/06/23 01:30:11;;;;;;;9.17;8.57;;;;;;;19.88;100.00;101610.63;4992975;28;20484;-43
2023/06/23 01:32:44;;;;;;;9.60;8.30;;;;;;;19.86;100.00;101609.22;5000397;28;20429;-43
2023/06/23 01:35:20;;;;;;;9.50;8.80;;;;;;;19.84;100.00;101595.06;5000483;28;20490;-43
2023/06/23 01:37:54;;;;;;;9.13;8.50;;;;;;;19.84;100.00;101603.19;4999906;28;20488;-43
2023/06/23 01:40:24;;;;;;;9.13;8.43;;;;;;;19.79;100.00;101601.22;5000415;28;20465;-43
2023/06/23 01:42:57;;;;;;;9.47;8.57;;;;;;;19.81;100.00;101603.66;4999310;28;20425;-45
2023/06/23 01:45:28;;;;;;;8.83;8.20;;;;;;;19.78;100.00;101602.25;4999996;28;20485;-43
2023/06/23 01:48:02;;;;;;;9.20;8.40;;;;;;;19.81;100.00;101601.78;4998691;28;20470;-45
2023/06/23 01:50:33;;;;;;;8.07;7.57;;;;;;;19.81;100.00;101598.25;4998335;28;20448;-48
2023/06/23 01:53:04;;;;;;;9.37;8.57;;;;;;;19.77;100.00;101610.63;4999113;28;20793;-44
2023/06/23 01:55:34;;;;;;;8.47;7.73;;;;;;;19.80;100.00;101602.03;4999529;28;20465;-43
2023/06/23 01:58:03;;;;;;;8.43;7.80;;;;;;;19.81;100.00;101612.63;5000600;28;20473;-45
2023/06/23 02:00:33;;;;;;;8.10;7.30;;;;;;;19.80;100.00;101615.56;5000049;28;20450;-46
2023/06/23 02:03:02;;;;;;;8.53;7.90;;;;;;;19.81;100.00;101620.72;4999537;28;20464;-44
2023/06/23 02:05:32;;;;;;;8.33;7.50;;;;;;;19.79;100.00;101638.28;4999439;28;20469;-43
2023/06/23 02:08:02;;;;;;;8.67;7.93;;;;;;;19.74;100.00;101641.66;5000347;28;20848;-46
2023/06/23 02:10:31;;;;;;;6.97;6.47;;;;;;;19.74;100.00;101647.06;4999885;28;20555;-43
2023/06/23 02:12:59;;;;;;;7.00;6.60;;;;;;;19.70;100.00;101658.63;4999766;28;20432;-44
2023/06/23 02:15:29;;;;;;;7.40;6.90;;;;;;;19.69;100.00;101654.25;4998946;28;20548;-44
2023/06/23 02:18:01;;;;;;;7.00;6.53;;;;;;;19.71;100.00;101657.56;4999230;28;20500;-46
2023/06/23 02:20:31;;;;;;;7.60;7.10;;;;;;;19.66;100.00;101660.13;4999115;28;20457;-46
2023/06/23 02:23:00;;;;;;;7.83;7.07;;;;;;;19.68;100.00;101658.03;4999128;28;20532;-44
2023/06/23 02:25:29;;;;;;;7.67;6.97;;;;;;;19.65;100.00;101656.59;4998668;28;20523;-42
2023/06/23 02:27:58;;;;;;;9.73;7.10;;;;;;;19.63;100.00;101658.72;4998696;28;21110;-43
2023/06/23 02:30:26;;;;;;;7.30;6.80;;;;;;;19.67;100.00;101654.50;4999140;28;20457;-43
2023/06/23 02:32:56;;;;;;;7.67;7.10;;;;;;;19.71;100.00;101655.66;4995595;28;20429;-45
2023/06/23 02:35:25;;;;;;;7.80;7.10;;;;;;;19.62;100.00;101653.56;4993294;28;20500;-46
2023/06/23 02:37:57;;;;;;;8.17;7.37;;;;;;;19.63;100.00;101653.31;4993616;28;20527;-44
2023/06/23 02:40:26;;;;;;;7.80;7.33;;;;;;;19.61;100.00;101660.84;4993337;28;20549;-45
2023/06/23 02:43:01;;;;;;;8.30;7.80;;;;;;;19.60;100.00;101652.97;4993560;28;20426;-45
2023/06/23 02:45:34;;;;;;;7.67;6.70;;;;;;;19.61;100.00;101658.16;4993350;28;20539;-46
2023/06/23 02:48:04;;;;;;;7.57;7.07;;;;;;;19.61;100.00;101660.03;4993402;28;20848;-42
2023/06/23 02:50:36;;;;;;;8.00;7.40;;;;;;;19.49;100.00;101665.44;4993572;28;20543;-44
2023/06/23 02:53:07;;;;;;;8.30;7.70;;;;;;;19.51;100.00;101662.47;4993127;28;20429;-44
2023/06/23 02:55:39;;;;;;;7.90;7.30;;;;;;;19.50;100.00;101663.56;4993241;28;20469;-48
2023/06/23 02:58:10;;;;;;;8.03;7.53;;;;;;;19.40;100.00;101672.22;4993549;28;20544;-44
2023/06/23 03:00:38;;;;;;;8.13;7.40;;;;;;;19.41;100.00;101667.66;4993247;28;20441;-45
2023/06/23 03:03:10;;;;;;;7.67;7.27;;;;;;;19.38;100.00;101663.50;4992897;28;20426;-44
2023/06/23 03:05:39;;;;;;;8.80;7.90;;;;;;;19.33;100.00;101656.06;4993398;28;20480;-45
2023/06/23 03:08:08;;;;;;;7.73;7.23;;;;;;;19.27;100.00;101651.59;4993571;28;20565;-44
2023/06/23 03:10:35;;;;;;;8.10;7.50;;;;;;;19.25;100.00;101648.31;4993462;28;20987;-45
2023/06/23 03:13:03;;;;;;;8.33;7.73;;;;;;;19.30;100.00;101658.41;4992980;28;20433;-44
2023/06/23 03:15:31;;;;;;;10.83;8.43;;;;;;;19.27;100.00;101651.59;4992711;28;20504;-44
2023/06/23 03:18:05;;;;;;;9.33;8.50;;;;;;;19.28;100.00;101647.84;4992785;28;20477;-44
2023/06/23 03:20:38;;;;;;;8.83;8.07;;;;;;;19.30;100.00;101651.13;4993115;28;20516;-45
2023/06/23 03:23:11;;;;;;;11.10;8.90;;;;;;;19.19;100.00;101651.94;4992905;28;20433;-47
2023/06/23 03:25:41;;;;;;;8.97;8.37;;;;;;;19.17;100.00;101653.22;4992416;28;20837;-47
2023/06/23 03:28:11;;;;;;;8.67;8.07;;;;;;;19.19;100.00;101653.81;4992958;28;20924;-47
2023/06/23 03:30:42;;;;;;;9.70;8.90;;;;;;;19.24;100.00;101657.47;4993182;28;20430;-45
2023/06/23 03:33:14;;;;;;;9.73;8.83;;;;;;;19.25;100.00;101661.81;4993122;28;20512;-46
2023/06/23 03:35:43;;;;;;;10.37;9.47;;;;;;;19.26;100.00;101670.75;4992106;28;20497;-44
2023/06/23 03:38:16;;;;;;;9.23;8.40;;;;;;;19.29;100.00;101676.50;4993035;28;20473;-47
2023/06/23 03:40:48;;;;;;;11.33;10.43;;;;;;;19.27;100.00;101675.94;4993432;28;20503;-47
2023/06/23 03:43:21;;;;;;;9.77;8.77;;;;;;;19.28;100.00;101680.28;4993348;28;20449;-47
2023/06/23 03:45:53;;;;;;;9.60;8.70;;;;;;;19.29;100.00;101678.41;4993091;28;20465;-46
2023/06/23 03:48:25;;;;;;;8.93;8.10;;;;;;;19.34;100.00;101683.94;4993440;28;20505;-45
2023/06/23 03:50:56;;;;;;;10.07;9.17;;;;;;;19.31;100.00;101676.28;4993634;28;20446;-44
2023/06/23 03:53:28;;;;;;;9.30;8.60;;;;;;;19.29;100.00;101676.50;4993709;28;21007;-44
2023/06/23 03:55:58;;;;;;;9.80;9.20;;;;;;;19.28;100.00;101685.69;4992966;28;20512;-45
2023/06/23 03:58:28;;;;;;;9.47;8.80;;;;;;;19.26;100.00;101685.09;4993666;28;20528;-45
2023/06/23 04:00:58;;;;;;;9.90;9.20;;;;;;;19.27;100.00;101689.44;4993740;28;20473;-48
2023/06/23 04:03:30;;;;;;;8.73;8.20;;;;;;;19.18;100.00;101690.81;4993790;28;20430;-46
2023/06/23 04:06:00;;;;;;;8.77;8.17;;;;;;;19.25;100.00;101696.97;4995629;28;20477;-45
2023/06/23 04:08:32;;;;;;;9.23;8.53;;;;;;;19.23;100.00;101695.56;4997440;28;20438;-45
2023/06/23 04:11:01;;;;;;;8.73;8.13;;;;;;;19.17;100.00;101701.88;4997350;28;20804;-48
2023/06/23 04:13:32;;;;;;;9.20;8.60;;;;;;;19.19;100.00;101700.59;4997184;28;20430;-45
2023/06/23 04:16:03;;;;;;;9.27;8.47;;;;;;;19.24;100.00;101699.91;4996572;28;21003;-45
2023/06/23 04:18:32;;;;;;;9.70;8.80;;;;;;;19.19;100.00;101705.19;4997392;28;20477;-44
2023/06/23 04:21:03;;;;;;;8.37;7.77;;;;;;;19.25;100.00;101705.09;4997384;28;20437;-43
2023/06/23 04:23:35;;;;;;;9.20;8.60;;;;;;;19.21;100.00;101708.47;4997122;28;20877;-47
2023/06/23 04:26:06;;;;;;;9.43;8.67;;;;;;;19.24;100.00;101702.59;4996840;28;20461;-45
2023/06/23 04:28:35;;;;;;;8.40;7.70;;;;;;;19.25;100.00;101709.66;4997417;28;20449;-44
2023/06/23 04:31:08;;;;;;;8.47;7.90;;;;;;;19.28;100.00;101718.16;4989620;28;20453;-45
2023/06/23 04:33:37;;;;;;;10.07;9.27;;;;;;;19.21;100.00;101711.16;4997166;28;20432;-49
2023/06/23 04:36:13;;;;;;;8.17;7.57;;;;;;;19.21;100.00;101717.41;4996406;28;20468;-49
2023/06/23 04:38:48;;;;;;;7.80;7.13;;;;;;;19.25;100.00;101717.78;4996660;28;20531;-45
2023/06/23 04:41:20;;;;;;;9.17;8.57;;;;;;;19.26;100.00;101714.03;4996566;28;20478;-47
2023/06/23 04:43:52;;;;;;;8.63;8.00;;;;;;;19.32;100.00;101705.00;4996803;28;20469;-46
2023/06/23 04:46:23;;;;;;;8.20;7.50;;;;;;;19.39;100.00;101713.00;4996253;28;20464;-46
2023/06/23 04:48:55;;;;;;;8.17;7.43;;;;;;;19.35;100.00;101704.53;4996974;28;20449;-45
2023/06/23 04:51:28;;;;;;;7.93;7.33;;;;;;;19.46;100.00;101709.19;4996521;28;20500;-45
2023/06/23 04:54:01;;;;;;;7.97;7.47;;;;;;;19.40;100.00;101710.09;4996460;28;20465;-46
2023/06/23 04:56:34;;;;;;;8.03;7.30;;;;;;;19.49;100.00;101716.00;4996268;28;20457;-48
2023/06/23 04:59:06;;;;;;;8.30;7.70;;;;;;;19.55;100.00;101717.78;4996645;28;20564;-49
2023/06/23 05:01:34;;;;;;;7.60;7.00;;;;;;;19.57;100.00;101726.47;4996591;28;20484;-50
2023/06/23 05:04:06;;;;;;;7.43;7.00;;;;;;;19.58;100.00;101720.03;4996904;28;20804;-48
2023/06/23 05:06:36;;;;;;;8.63;7.73;;;;;;;19.49;100.00;101719.53;4996251;28;20461;-45
2023/06/23 05:09:06;;;;;;;7.20;6.80;;;;;;;19.49;100.00;101729.53;4996592;28;20540;-47
2023/06/23 05:11:36;;;;;;;8.73;8.13;;;;;;;19.53;100.00;101725.31;4996236;28;20445;-48
2023/06/23 05:14:06;;;;;;;7.67;7.07;;;;;;;19.59;100.00;101735.22;4996654;28;20441;-45
2023/06/23 05:16:35;;;;;;;8.43;7.83;;;;;;;19.60;100.00;101728.72;4995953;28;20489;-45
2023/06/23 05:19:06;;;;;;;7.73;7.13;;;;;;;19.63;100.00;101725.56;4996721;28;20855;-48
2023/06/23 05:21:35;;;;;;;7.70;7.10;;;;;;;19.66;100.00;101730.50;4996714;28;20438;-45
2023/06/23 05:24:08;;;;;;;8.40;7.60;;;;;;;19.67;100.00;101732.16;4996509;28;20438;-44
2023/06/23 05:26:39;;;;;;;8.50;7.70;;;;;;;19.58;100.00;101736.25;4996306;28;20516;-48
2023/06/23 05:29:09;;;;;;;9.17;8.40;;;;;;;19.60;100.00;101739.53;4996141;28;20437;-49
2023/06/23 05:31:41;;;;;;;7.97;7.47;;;;;;;19.65;100.00;101745.09;4996646;28;20440;-45
2023/06/23 05:34:12;;;;;;;8.50;7.73;;;;;;;19.77;100.00;101738.63;4997202;28;20440;-45
2023/06/23 05:36:41;;;;;;;7.93;7.23;;;;;;;19.79;100.00;101741.94;4996210;28;20438;-44
2023/06/23 05:39:15;;;;;;;7.53;7.13;;;;;;;19.78;100.00;101744.88;4996357;28;20473;-46
2023/06/23 05:41:43;;;;;;;8.27;7.67;;;;;;;19.78;100.00;101744.88;4995891;28;20552;-50
2023/06/23 05:44:11;;;;;;;7.67;7.13;;;;;;;19.87;100.00;101760.56;4996940;28;20438;-45
2023/06/23 05:46:42;;;;;;;9.00;8.10;;;;;;;19.82;100.00;101760.44;4995588;28;20450;-45
2023/06/23 05:49:14;;;;;;;7.60;7.10;;;;;;;19.83;100.00;101763.97;4996715;28;20446;-44
2023/06/23 05:51:43;;;;;;;7.37;6.77;;;;;;;19.82;100.00;101762.31;4996163;28;20955;-46
2023/06/23 05:54:12;;;;;;;7.87;7.37;;;;;;;19.82;100.00;101767.72;4996321;28;20438;-46
2023/06/23 05:56:45;;;;;;;7.70;7.17;;;;;;;19.83;100.00;101762.06;5015586;28;20463;-44
2023/06/23 05:59:21;;;;;;;8.70;6.90;;;;;;;19.82;100.00;101763.13;5015735;28;20858;-43
2023/06/23 06:01:52;;;;;;;8.30;7.40;;;;;;;19.90;100.00;101770.09;5015457;28;20440;-45
2023/06/23 06:04:25;;;;;;;8.13;7.33;;;;;;;19.74;100.00;101770.78;5015379;28;20436;-44
2023/06/23 06:06:55;;;;;;;7.83;7.20;;;;;;;19.76;100.00;101768.66;5015789;28;20420;-45
2023/06/23 06:09:27;;;;;;;8.57;7.87;;;;;;;19.96;100.00;101773.75;5015364;28;20458;-44
2023/06/23 06:11:58;;;;;;;9.23;7.37;;;;;;;19.92;100.00;101765.28;5015689;28;20429;-44
2023/06/23 06:14:30;;;;;;;11.83;7.60;;;;;;;19.97;100.00;101772.69;5013613;28;20479;-45
2023/06/23 06:16:59;;;;;;;8.50;7.80;;;;;;;19.96;100.00;101774.56;4995861;28;20438;-44
2023/06/23 06:19:30;;;;;;;7.57;7.07;;;;;;;19.93;100.00;101772.31;4996158;28;20481;-44
2023/06/23 06:22:00;;;;;;;7.77;7.27;;;;;;;19.98;100.00;101771.63;4996042;28;20833;-43
2023/06/23 06:24:30;;;;;;;7.73;7.10;;;;;;;20.01;100.00;101779.28;4995639;28;20437;-45
2023/06/23 06:27:00;;;;;;;8.13;7.43;;;;;;;20.05;100.00;101777.75;4995398;28;20469;-43
2023/06/23 06:29:30;;;;;;;7.03;6.50;;;;;;;20.09;100.00;101778.94;4994875;28;20480;-44
2023/06/23 06:32:00;;;;;;;8.40;7.70;;;;;;;19.99;100.00;101784.09;4995788;28;20484;-44
2023/06/23 06:34:31;;;;;;;9.80;8.80;;;;;;;20.01;100.00;101777.38;4995224;28;20516;-47
2023/06/23 06:37:01;;;;;;;8.13;7.57;;;;;;;20.08;100.00;101794.38;4995805;28;20438;-48
2023/06/23 06:39:31;;;;;;;8.50;7.80;;;;;;;20.08;100.00;101778.13;4995597;28;20922;-46
2023/06/23 06:41:59;;;;;;;8.17;7.67;;;;;;;20.08;100.00;101794.38;4995684;28;20453;-44
2023/06/23 06:44:27;;;;;;;7.90;7.10;;;;;;;20.17;100.00;101794.84;4994881;28;20496;-46
2023/06/23 06:46:56;;;;;;;8.87;8.07;;;;;;;20.16;100.00;101799.41;4995577;28;20433;-44
2023/06/23 06:49:26;;;;;;;8.57;7.70;;;;;;;20.27;100.00;101806.78;4995372;28;20570;-45
2023/06/23 06:51:55;;;;;;;9.63;7.30;;;;;;;20.35;100.00;101800.19;4995142;28;20435;-45
2023/06/23 06:54:23;;;;;;;9.30;7.07;;;;;;;20.41;100.00;101800.06;4994491;28;20430;-44
2023/06/23 06:56:54;;;;;;;9.13;8.27;;;;;;;20.42;100.00;101812.56;4995452;28;20738;-44
2023/06/23 06:59:22;;;;;;;8.60;7.90;;;;;;;20.51;100.00;101806.78;4995043;28;20509;-44
2023/06/23 07:01:50;;;;;;;7.70;7.17;;;;;;;20.63;100.00;101813.03;4995338;28;20488;-44
2023/06/23 07:04:20;;;;;;;8.10;7.60;;;;;;;20.76;100.00;101816.28;4995255;28;20437;-47
2023/06/23 07:06:52;;;;;;;8.80;8.10;;;;;;;20.92;100.00;101812.03;5014436;28;20957;-45
2023/06/23 07:09:20;;;;;;;7.93;6.97;;;;;;;21.11;100.00;101813.56;5014871;28;20935;-45
2023/06/23 07:11:48;;;;;;;8.63;7.53;;;;;;;20.95;100.00;101808.84;5014772;28;20953;-44
2023/06/23 07:14:17;;;;;;;7.80;7.20;;;;;;;21.05;100.00;101809.06;5014268;28;20476;-44
2023/06/23 07:16:45;;;;;;;8.30;7.53;;;;;;;20.98;100.00;101816.50;5015281;28;20436;-45
2023/06/23 07:19:13;;;;;;;7.60;7.10;;;;;;;21.05;100.00;101821.78;5014296;28;20503;-48
2023/06/23 07:21:40;;;;;;;7.43;6.93;;;;;;;21.20;100.00;101820.25;5014311;28;20436;-44
2023/06/23 07:24:08;;;;;;;8.10;7.60;;;;;;;21.20;100.00;101830.28;5015021;28;20448;-45
2023/06/23 07:26:37;;;;;;;8.57;7.97;;;;;;;21.23;100.00;101836.06;4994401;28;20888;-44
2023/06/23 07:29:05;;;;;;;8.30;7.70;;;;;;;21.33;100.00;101830.81;4994262;28;20500;-43
2023/06/23 07:31:35;;;;;;;8.17;7.50;;;;;;;21.29;100.00;101845.13;4994483;28;20437;-48
2023/06/23 07:34:03;;;;;;;7.73;7.20;;;;;;;21.18;100.00;101838.66;4994365;28;20493;-46
2023/06/23 07:36:30;;;;;;;8.37;7.60;;;;;;;21.33;100.00;101838.94;4993641;28;21039;-43
2023/06/23 07:38:58;;;;;;;12.20;7.80;;;;;;;21.35;100.00;101834.13;4995354;28;21032;-46
2023/06/23 07:41:26;;;;;;;8.03;7.37;;;;;;;21.38;100.00;101843.66;4997687;28;20480;-45
2023/06/23 07:43:53;;;;;;;9.00;8.13;;;;;;;21.60;100.00;101838.38;4998061;28;20429;-47
2023/06/23 07:46:21;;;;;;;8.13;7.43;;;;;;;21.58;100.00;101830.50;4996725;28;20500;-44
2023/06/23 07:48:50;;;;;;;8.23;7.63;;;;;;;21.78;100.00;101830.03;4997745;28;20812;-49
2023/06/23 07:51:18;;;;;;;8.37;7.67;;;;;;;21.90;100.00;101834.34;4998117;28;20433;-47
2023/06/23 07:53:46;;;;;;;8.53;7.80;;;;;;;21.92;100.00;101845.00;4998323;28;20804;-49
2023/06/23 07:56:28;;;;;;;8.10;7.50;;;;;;;22.14;100.00;101842.34;4997153;28;20472;-49
2023/06/23 07:58:56;;;;;;;8.03;7.27;;;;;;;22.16;100.00;101851.09;4998390;28;20482;-47
2023/06/23 08:01:24;;;;;;;9.10;8.40;;;;;;;22.28;100.00;101852.66;4997780;28;20477;-47
2023/06/23 08:03:53;;;;;;;9.00;8.40;;;;;;;22.52;100.00;101848.69;4998242;28;20510;-48
2023/06/23 08:06:23;;;;;;;8.90;8.10;;;;;;;22.68;100.00;101855.22;5014902;28;20487;-44
2023/06/23 08:08:51;;;;;;;10.00;9.03;;;;;;;22.60;100.00;101853.72;5017767;28;20456;-44
2023/06/23 08:11:19;;;;;;;8.60;7.37;;;;;;;22.76;100.00;101856.69;5017515;28;20491;-47
2023/06/23 08:13:50;;;;;;;6.70;6.40;;;;;;;22.94;100.00;101842.78;5017847;28;20460;-44
2023/06/23 08:16:18;;;;;;;7.73;7.17;;;;;;;22.93;100.00;101858.31;5017024;28;20874;-47
2023/06/23 08:18:45;;;;;;;8.63;8.13;;;;;;;23.05;100.00;101869.06;5017681;28;20490;-44
2023/06/23 08:21:14;;;;;;;7.40;6.83;;;;;;;23.11;100.00;101862.63;5016883;28;20479;-45
2023/06/23 08:23:45;;;;;;;8.30;7.80;;;;;;;23.20;99.47;101876.59;5017431;28;20438;-46
2023/06/23 08:26:13;;;;;;;8.37;7.53;;;;;;;23.18;98.78;101878.75;5000496;28;20472;-46
2023/06/23 08:28:40;;;;;;;7.67;7.10;;;;;;;23.17;96.99;101871.66;4997702;28;20507;-45
2023/06/23 08:31:08;;;;;;;7.80;7.30;;;;;;;23.13;97.79;101864.00;4997339;28;20496;-45
2023/06/23 08:33:36;;;;;;;7.40;6.70;;;;;;;23.34;94.38;101875.97;4997500;28;20811;-44
2023/06/23 08:36:04;;;;;;;7.13;6.63;;;;;;;23.56;95.55;101868.66;4997438;28;20476;-46
2023/06/23 08:38:33;;;;;;;6.50;6.10;;;;;;;23.73;90.79;101881.31;4997458;28;20445;-45
2023/06/23 08:41:02;;;;;;;6.90;6.50;;;;;;;23.52;90.94;101889.28;4996574;28;20536;-46
2023/06/23 08:43:34;;;;;;;6.57;6.17;;;;;;;23.61;89.30;101889.66;4996508;28;20839;-49
2023/06/23 08:46:03;;;;;;;7.17;6.73;;;;;;;23.83;90.42;101885.00;4996022;28;20469;-47
2023/06/23 08:48:32;;;;;;;7.30;6.80;;;;;;;24.18;93.77;101881.81;4995681;28;20437;-45
2023/06/23 08:51:01;;;;;;;7.00;6.63;;;;;;;24.15;86.43;101883.16;4995231;28;20492;-46
2023/06/23 08:53:29;;;;;;;7.07;6.53;;;;;;;24.19;85.11;101884.25;4995811;28;20433;-47
2023/06/23 08:56:00;;;;;;;7.20;6.60;;;;;;;24.50;87.86;101882.63;4995468;28;20453;-49
2023/06/23 08:58:28;;;;;;;7.00;6.40;;;;;;;24.75;80.42;101885.53;4995584;28;20442;-44
2023/06/23 09:00:55;;;;;;;6.47;6.03;;;;;;;25.10;78.81;101882.19;4995714;28;20899;-46
2023/06/23 09:03:24;;;;;;;6.73;6.33;;;;;;;24.87;77.21;101888.09;4995438;28;20433;-47
2023/06/23 09:05:52;;;;;;;6.87;6.37;;;;;;;25.06;76.15;101888.47;4995424;28;20461;-46
2023/06/23 09:08:20;;;;;;;7.10;6.67;;;;;;;25.32;75.40;101887.50;4995597;28;21034;-46
2023/06/23 09:10:48;;;;;;;7.43;6.90;;;;;;;25.34;74.29;101893.50;4995559;28;20430;-46
2023/06/23 09:13:23;;;;;;;6.43;5.97;;;;;;;25.31;72.95;101892.13;4995130;28;20441;-47
2023/06/23 09:15:52;;;;;;;7.50;7.00;;;;;;;25.11;71.01;101893.94;4994995;28;20468;-45
2023/06/23 09:18:31;;;;;;;7.03;6.63;;;;;;;25.11;70.90;101894.78;4995692;28;20429;-46
2023/06/23 09:21:02;;;;;;;6.53;6.07;;;;;;;25.11;69.47;101897.50;4995579;28;20473;-49
2023/06/23 09:23:31;;;;;;;7.20;6.70;;;;;;;25.14;71.38;101907.88;4995099;28;20517;-46
2023/06/23 09:26:03;;;;;;;7.00;6.40;;;;;;;25.12;69.93;101904.59;4994854;28;20548;-47
2023/06/23 09:28:35;;;;;;;6.23;5.83;;;;;;;25.13;66.92;101911.69;4995107;28;20434;-48
2023/06/23 09:31:11;;;;;;;7.00;6.40;;;;;;;25.44;69.10;101914.56;4995242;28;20434;-49
2023/06/23 09:33:46;;;;;;;6.87;6.40;;;;;;;25.46;67.88;101924.13;4994411;28;20517;-48
2023/06/23 09:36:14;;;;;;;6.43;6.03;;;;;;;25.00;66.54;101923.06;4993952;28;20998;-44
2023/06/23 09:38:42;;;;;;;6.63;6.00;;;;;;;25.08;67.25;101927.22;4994298;28;20445;-45
2023/06/23 09:41:11;;;;;;;6.07;5.57;;;;;;;25.06;66.34;101923.94;4994042;28;20524;-47
2023/06/23 09:43:42;;;;;;;5.73;5.33;;;;;;;25.15;68.96;101927.78;4994316;28;20437;-48
2023/06/23 09:46:11;;;;;;;6.03;5.73;;;;;;;25.38;70.33;101926.56;4993948;28;20497;-48
2023/06/23 09:48:40;;;;;;;6.70;5.77;;;;;;;25.40;62.92;101938.03;4994100;28;20471;-47
2023/06/23 09:51:08;;;;;;;6.30;5.27;;;;;;;25.21;61.63;101935.75;4994214;28;20533;-47
2023/06/23 09:53:37;;;;;;;6.80;6.20;;;;;;;25.31;62.98;101935.00;4993880;28;20496;-46
2023/06/23 09:56:07;;;;;;;7.20;6.70;;;;;;;25.18;59.17;101935.44;4993566;28;20458;-47
2023/06/23 09:58:37;;;;;;;7.37;6.87;;;;;;;25.33;62.44;101942.94;4994133;28;20458;-48
2023/06/23 10:01:09;;;;;;;6.40;6.03;;;;;;;25.20;60.92;101936.84;4993990;28;20477;-48
2023/06/23 10:03:44;;;;;;;6.70;6.30;;;;;;;25.27;61.25;101944.78;4992924;28;20429;-50
2023/06/23 10:06:22;;;;;;;6.03;5.63;;;;;;;25.31;60.65;101941.28;4993404;28;20465;-47
2023/06/23 10:08:53;;;;;;;6.40;5.93;;;;;;;25.76;57.92;101937.94;4993730;28;20532;-48
2023/06/23 10:11:28;;;;;;;7.50;6.70;;;;;;;25.60;57.60;101946.31;4993628;28;20429;-51
2023/06/23 10:13:57;;;;;;;6.60;6.10;;;;;;;26.23;59.44;101945.16;4993799;28;20433;-52
2023/06/23 10:16:27;;;;;;;6.30;5.90;;;;;;;26.56;55.50;101944.63;4993220;28;20469;-46
2023/06/23 10:18:55;;;;;;;6.27;5.97;;;;;;;26.54;59.22;101952.31;4993611;28;20485;-46
2023/06/23 10:21:24;;;;;;;7.07;6.67;;;;;;;26.63;57.13;101964.34;4993612;28;20916;-48
2023/06/23 10:23:52;;;;;;;6.77;6.27;;;;;;;26.82;56.79;101965.44;4993622;28;20442;-52
2023/06/23 10:26:21;;;;;;;6.63;6.20;;;;;;;26.98;54.27;101963.50;4993150;28;20516;-47
2023/06/23 10:28:50;;;;;;;5.47;5.07;;;;;;;26.78;55.10;101974.44;4993196;28;20541;-46
2023/06/23 10:31:19;;;;;;;6.83;6.33;;;;;;;26.77;54.84;101973.63;4993118;28;20433;-49
2023/06/23 10:33:49;;;;;;;5.80;5.47;;;;;;;26.98;54.45;101976.38;4993497;28;20425;-45
2023/06/23 10:36:18;;;;;;;5.63;5.20;;;;;;;27.21;52.44;101965.63;4993108;28;20469;-46
2023/06/23 10:38:51;;;;;;;7.03;6.43;;;;;;;27.23;52.13;101968.13;4993384;28;20445;-46
2023/06/23 10:41:20;;;;;;;7.10;6.70;;;;;;;27.38;48.78;101968.06;4993054;28;20477;-46
2023/06/23 10:43:52;;;;;;;6.33;5.80;;;;;;;27.12;49.11;101974.72;4993007;28;20477;-51
2023/06/23 10:46:20;;;;;;;5.97;5.67;;;;;;;27.36;50.75;101972.97;4992845;28;20520;-49
2023/06/23 10:48:50;;;;;;;6.23;5.83;;;;;;;27.28;48.24;101974.41;4993140;28;20465;-48
2023/06/23 10:51:17;;;;;;;6.13;5.63;;;;;;;27.15;49.14;101974.16;4993454;28;20491;-48
2023/06/23 10:53:50;;;;;;;6.43;5.80;;;;;;;27.45;46.79;101985.88;4993134;28;20441;-48
2023/06/23 10:56:31;;;;;;;7.07;6.53;;;;;;;27.28;48.61;101979.03;4992658;28;21059;-48
2023/06/23 10:58:59;;;;;;;6.20;5.80;;;;;;;27.58;49.01;101980.88;4993151;28;20492;-49
2023/06/23 11:01:27;;;;;;;6.27;5.63;;;;;;;27.96;50.00;101980.16;4992747;28;20911;-46
2023/06/23 11:04:03;;;;;;;6.10;5.70;;;;;;;27.92;47.53;101976.34;4992871;28;20446;-47
2023/06/23 11:06:36;;;;;;;9.80;4.90;;;;;;;27.89;47.09;101982.41;4992237;28;20493;-46
2023/06/23 11:09:24;;;;;;;4.80;4.60;;;;;;;27.29;45.85;101987.00;4992874;28;20864;-47
2023/06/23 11:11:53;;;;;;;5.60;5.27;;;;;;;26.76;46.65;101995.81;4992664;28;20969;-45
2023/06/23 11:14:21;;;;;;;6.17;5.77;;;;;;;26.80;47.14;101997.75;4992153;28;20628;-49
2023/06/23 11:16:50;;;;;;;5.20;4.80;;;;;;;26.61;46.61;101987.59;4992560;28;20466;-46
2023/06/23 11:19:27;;;;;;;5.43;5.03;;;;;;;26.68;48.27;101988.94;4992527;28;21183;-46
2023/06/23 11:22:09;;;;;;;5.20;4.90;;;;;;;27.00;46.48;101980.47;4992416;28;20480;-46
2023/06/23 11:24:36;;;;;;;4.60;4.40;;;;;;;27.25;45.58;101993.28;4992116;28;20450;-44
2023/06/23 11:27:06;;;;;;;5.50;5.20;;;;;;;27.07;46.62;101999.34;4992417;28;20453;-46
2023/06/23 11:29:34;;;;;;;5.40;5.10;;;;;;;26.93;48.59;102001.84;4992371;28;20462;-46
2023/06/23 11:32:19;;;;;;;6.40;5.50;;;;;;;27.07;48.45;101996.63;4992185;28;20456;-49
2023/06/23 11:34:52;;;;;;;5.73;5.33;;;;;;;26.89;48.42;101998.84;4991402;28;20999;-44